アンカレッジ/テッド・スティーブンス の空港の天気 - METARとTAF

テッド・スティーブンス・アンカレッジ国際空港 ( PANC / ANC ) - アメリカ アラスカ州アンカレッジ
飛行場実況気象(Metar)
観測時間10/15 21:53 AKDT (10/16 05:53 UTC)
風向・風速北北西 4m/s
視程10km以上
天気現象弱い雨
少しの雲 雲底高度 90m
少しの雲 雲底高度 210m
全天を覆う雲 雲底高度 2130m
気温6.7℃
湿度93%
気圧991.7hPa
METARPANC 160553Z 33007KT 10SM -RA FEW003 FEW007 OVC070 07/06 A2928 RMK AO2 SLP917 P0007 60020 T00670056 10067 20061 56019
過去の天気等 Google飛行場航空写真 Wunderground天気予報

過去48時間のMETAR

飛行場予報(TAF)
発表時間: 10/15 21:34 AKDT (10/16 05:34 UTC)
予報対象時間: 15日22時 AKDT ~ 17日4時 AKDT
風向・風速北 4m/s
視程10km以上
天気現象弱い雨 もや
全天を覆う雲 雲底高度 1830m
16日0時 AKDT ~ 16日4時 AKDT に一時的に
視程8050m
天気現象弱い雨
全天の8割程度の雲 雲底高度 910m
16日4時 AKDT から
風向・風速南東 5m/s
視程10km以上
天気現象弱い雨
全天の8割程度の雲 雲底高度 760m
全天を覆う雲 雲底高度 1520m
16日10時 AKDT から
風向・風速南東 5m/s 瞬間風速 10m/s
視程10km以上
天気現象弱いしゅう雨
全天の8割程度の雲 雲底高度 1830m
PANC 160534Z 1606/1712 36008KT 6SM -RA BR OVC060 WS020/12030KT
TEMPO 1608/1612 5SM -RA BKN030
FM161200 14010KT 6SM -RA BKN025 OVC050
FM161800 14010G20KT P6SM -SHRA BKN060